Skip Navigation LinksHome page > Weather > Current weather Skip Navigation Links

Current Weather

Unknown weather station ZSPD

For information only: do not use for flight planning or navigation.
Latest weather
Observation time Tuesday, April 20, 2021 10:00 PM UTC
Local time Tuesday, April 20, 2021 10:34 PM UTC
Flight conditions Visual Meteorological Conditions
Winds
Wind direction Southeast (140°)
Wind speed 9 mph
Visibility 6.2 mi.
Sky condition
Ceiling unlimited
Sky clear
Temperature 61°F
Dewpoint 55°F
Altimeter 30.03 in.Hg
Derived measurements
Relative humidity 82%
Density altitude 200 ft.
Remarks
Ceiling and visibility OK.
No significant changes expected in the next two hours.
METAR ZSPD 202200Z 14004MPS CAVOK 16/13 Q1017 NOSIG

Settings

Location code

InnerDrive.Weather 4.0.6770.0 Release CLR 4.0.30319.42000
Copyright ©2018 Inner Drive Technology. All rights reserved. Portions Copyright ©1986-2018 David Braverman.

Find weather

Site navigation


Skip Navigation Links

Place info

Page info

PayPal - The safer, easier way to pay online!

Return home.

Copyright ©2021 Inner Drive Technology. Purveyors of fine, hand-crafted computer software. Page printed 2021-04-20T22:34:09 UTC.